< Cyclone 196108 1961 Season Cyclone 196110 >
Cyclone 196109 (unnamed)
General InformationTrack Information on Google Maps || ResourceGoogle EarthGE AnimationAtom FeedGeoJSON
Detalied Best Track (Time Zone = UTC)
Year Month Day Hour Lat. Long. Pressure (hPa) Wind (kt) Class Image Chart
1961 2 12 01 -8.9 99.0 995 0 0 -- --
1961 2 12 04 -9.1 98.8 995 0 0 -- --
1961 2 12 07 -9.4 98.5 994 0 0 -- --
1961 2 12 10 -9.6 98.2 994 0 0 -- --
1961 2 12 16 -10.1 97.7 993 0 0 -- --
1961 2 12 19 -10.4 97.5 993 0 0 -- --
1961 2 12 22 -10.7 97.2 992 0 0 -- --
1961 2 13 01 -10.9 97.0 992 0 0 -- --
1961 2 13 04 -11.2 97.0 992 0 0 -- --
1961 2 13 07 -11.5 97.0 992 0 0 -- --
1961 2 13 10 -11.9 97.0 991 0 0 -- --
1961 2 13 19 -13.1 97.0 991 0 0 -- --
1961 2 13 22 -13.5 97.0 991 0 0 -- --
1961 2 14 01 -13.9 97.0 990 0 0 -- --
1961 2 14 04 -14.1 97.0 990 0 0 -- --
1961 2 14 07 -14.4 97.0 990 0 0 -- --
1961 2 14 10 -14.6 97.0 990 0 0 -- --
1961 2 14 16 -14.7 97.0 990 0 0 -- --
1961 2 14 19 -14.7 97.0 990 0 0 -- --
1961 2 14 22 -14.8 97.0 990 0 0 -- --
1961 2 15 01 -15.9 97.0 990 0 0 -- --
1961 2 15 04 -16.1 97.1 990 0 0 -- --
1961 2 15 07 -16.4 97.3 991 0 0 -- --
1961 2 15 10 -16.6 97.4 991 0 0 -- --
1961 2 15 16 -17.1 97.5 992 0 0 -- --
1961 2 15 22 -17.7 97.8 994 0 0 -- --
1961 2 16 01 -17.9 98.0 995 0 0 -- --
1961 2 16 04 -18.0 98.1 996 0 0 -- --
1961 2 16 07 -18.2 98.3 996 0 0 -- --
1961 2 16 10 -18.3 98.4 997 0 0 -- --
1961 2 16 19 -18.7 98.8 998 0 0 -- --
1961 2 16 22 -18.8 98.9 999 0 0 -- --
1961 2 17 01 -18.9 99.0 1000 0 0 -- --
< Cyclone 196108 1961 Season Cyclone 196110 >

Help